Time;durP1;ratioP1;P1;durP2;ratioP2;P2;SDS_P1;SDS_P2;PMS_P1;PMS_P2;Temp;Humidity;BMP_temperature;BMP_pressure;BME280_temperature;BME280_humidity;BME280_pressure;Samples;Min_cycle;Max_cycle;Signal;HPM_P1;HPM_P2
2022/03/20 00:01:02;;;;;;;20.65;10.05;;;;;;;3.06;37.01;102728.06;5108957;28;20478;-72
2022/03/20 00:03:29;;;;;;;15.88;10.32;;;;;;;3.16;37.27;102740.25;5108934;28;20031;-75
2022/03/20 00:05:54;;;;;;;19.73;10.77;;;;;;;3.07;37.38;102729.81;5110976;28;20024;-72
2022/03/20 00:08:20;;;;;;;18.98;9.52;;;;;;;3.15;37.14;102736.69;5110036;28;20466;-72
2022/03/20 00:10:49;;;;;;;18.48;10.15;;;;;;;3.14;37.59;102737.63;5109975;28;20528;-72
2022/03/20 00:13:20;;;;;;;21.48;10.82;;;;;;;3.08;37.51;102723.59;5108648;28;20039;-72
2022/03/20 00:15:48;;;;;;;21.13;10.13;;;;;;;3.11;37.82;102750.94;5140150;27;20032;-72
2022/03/20 00:18:15;;;;;;;17.23;9.85;;;;;;;3.08;37.34;102743.03;5108610;28;20036;-72
2022/03/20 00:20:47;;;;;;;18.25;10.23;;;;;;;3.00;37.95;102744.06;5109768;28;20062;-72
2022/03/20 00:23:14;;;;;;;17.38;10.48;;;;;;;3.02;37.71;102750.19;5110092;28;20028;-72
2022/03/20 00:25:42;;;;;;;22.35;11.20;;;;;;;3.00;38.38;102749.38;5108007;28;20051;-72
2022/03/20 00:28:08;;;;;;;21.10;12.10;;;;;;;3.02;38.75;102763.47;5109782;28;20024;-72
2022/03/20 00:30:34;;;;;;;22.38;11.77;;;;;;;2.94;38.85;102757.44;5109600;28;20036;-72
2022/03/20 00:33:00;;;;;;;31.00;13.38;;;;;;;2.94;39.16;102760.09;5110150;28;20019;-72
2022/03/20 00:35:25;;;;;;;22.13;11.98;;;;;;;2.86;39.26;102754.03;5109958;28;20497;-72
2022/03/20 00:37:51;;;;;;;21.55;12.30;;;;;;;2.90;39.62;102763.69;5108521;28;20038;-72
2022/03/20 00:40:17;;;;;;;20.88;11.68;;;;;;;2.88;40.16;102762.84;5109608;28;20042;-71
2022/03/20 00:42:42;;;;;;;24.42;12.00;;;;;;;2.85;39.87;102760.25;5112458;28;20056;-72
2022/03/20 00:45:08;;;;;;;26.33;13.50;;;;;;;2.80;40.37;102759.47;5113793;28;20076;-72
2022/03/20 00:47:34;;;;;;;22.38;12.43;;;;;;;2.82;40.65;102776.19;5113430;28;20026;-72
2022/03/20 00:49:59;;;;;;;24.95;12.65;;;;;;;2.75;40.78;102775.44;5113842;28;20031;-75
2022/03/20 00:52:24;;;;;;;20.92;12.15;;;;;;;2.78;41.25;102778.03;5114649;27;20030;-75
2022/03/20 00:54:50;;;;;;;21.08;12.13;;;;;;;2.77;41.41;102778.91;5114256;28;20055;-75
2022/03/20 00:57:16;;;;;;;22.48;12.57;;;;;;;2.71;41.48;102772.84;5112688;28;20023;-75
2022/03/20 00:59:42;;;;;;;22.20;13.07;;;;;;;2.76;41.71;102778.94;5114002;28;20390;-75
2022/03/20 01:02:11;;;;;;;24.83;13.15;;;;;;;2.70;41.45;102776.41;5114039;28;20016;-75
2022/03/20 01:04:37;;;;;;;24.02;13.45;;;;;;;2.73;41.60;102793.13;5113998;28;20031;-75
2022/03/20 01:07:04;;;;;;;20.23;13.02;;;;;;;2.74;41.60;102801.94;5114427;28;20023;-75
2022/03/20 01:09:30;;;;;;;25.27;13.65;;;;;;;2.66;41.80;102793.22;5114178;28;20398;-74
2022/03/20 01:11:56;;;;;;;27.15;14.23;;;;;;;2.70;41.90;102806.41;5113720;28;20106;-74
2022/03/20 01:14:22;;;;;;;26.10;13.77;;;;;;;2.66;42.39;102817.97;5114035;28;20035;-75
2022/03/20 01:16:48;;;;;;;23.52;13.30;;;;;;;2.55;42.30;102809.31;5113466;28;20093;-75
2022/03/20 01:19:15;;;;;;;25.30;14.25;;;;;;;2.53;42.46;102799.63;5110536;28;20028;-75
2022/03/20 01:21:41;;;;;;;25.30;13.80;;;;;;;2.49;43.25;102812.06;5112612;28;20020;-75
2022/03/20 01:24:08;;;;;;;26.85;14.50;;;;;;;2.45;43.66;102820.06;5112593;28;20026;-75
2022/03/20 01:26:34;;;;;;;25.27;13.57;;;;;;;2.42;43.80;102828.06;5110801;28;20135;-75
2022/03/20 01:29:00;;;;;;;23.58;14.07;;;;;;;2.28;44.15;102817.66;5110401;28;20027;-75
2022/03/20 01:31:28;;;;;;;28.55;14.73;;;;;;;2.32;44.18;102829.94;5112618;28;20031;-75
2022/03/20 01:33:54;;;;;;;27.15;15.05;;;;;;;2.35;44.62;102832.53;5112793;28;20130;-75
2022/03/20 01:36:19;;;;;;;24.00;14.43;;;;;;;2.25;44.90;102823.88;5112588;28;20027;-75
2022/03/20 01:38:45;;;;;;;24.25;14.55;;;;;;;2.20;45.28;102820.41;5111511;28;20031;-76
2022/03/20 01:41:10;;;;;;;29.35;14.68;;;;;;;2.18;45.61;102824.84;5113542;28;20444;-75
2022/03/20 01:43:36;;;;;;;28.25;14.70;;;;;;;2.14;45.84;102831.09;5112327;28;20071;-75
2022/03/20 01:46:02;;;;;;;27.00;15.32;;;;;;;2.11;46.26;102825.84;5112203;27;20028;-75
2022/03/20 01:48:27;;;;;;;30.65;15.25;;;;;;;2.08;46.44;102820.59;5112223;28;20023;-75
2022/03/20 01:50:54;;;;;;;24.58;13.73;;;;;;;2.11;46.62;102839.06;5112193;28;20149;-75
2022/03/20 01:53:19;;;;;;;29.13;15.25;;;;;;;2.13;46.79;102845.22;5111350;28;20035;-75
2022/03/20 01:55:46;;;;;;;22.95;14.18;;;;;;;2.06;46.78;102838.25;5110474;28;20024;-75
2022/03/20 01:58:14;;;;;;;25.77;14.70;;;;;;;2.13;46.99;102850.50;5110635;28;20740;-75
2022/03/20 02:00:39;;;;;;;23.17;13.25;;;;;;;2.06;46.92;102843.53;5112041;28;20375;-75
2022/03/20 02:03:05;;;;;;;22.90;13.68;;;;;;;2.08;47.05;102848.81;5113423;28;20031;-75
2022/03/20 02:05:31;;;;;;;21.45;13.27;;;;;;;2.12;47.52;102859.34;5113718;27;20102;-75
2022/03/20 02:07:56;;;;;;;24.85;14.18;;;;;;;1.96;47.44;102836.63;5112580;28;20085;-75
2022/03/20 02:10:22;;;;;;;27.75;14.68;;;;;;;1.98;47.36;102842.78;5111616;28;20032;-75
2022/03/20 02:12:47;;;;;;;25.23;14.15;;;;;;;2.00;47.58;102840.97;5111901;28;20106;-75
2022/03/20 02:15:15;;;;;;;25.58;12.45;;;;;;;2.08;47.67;102860.28;5110734;28;20024;-75
2022/03/20 02:17:41;;;;;;;24.33;13.45;;;;;;;2.08;47.71;102864.69;5109170;28;20474;-75
2022/03/20 02:20:08;;;;;;;22.52;12.98;;;;;;;2.01;47.67;102852.44;5110608;28;20051;-75
2022/03/20 02:22:37;;;;;;;22.77;13.75;;;;;;;2.08;47.89;102864.69;5111682;28;20036;-75
2022/03/20 02:25:08;;;;;;;23.88;15.07;;;;;;;2.15;47.69;102869.91;5111629;28;20733;-75
2022/03/20 02:27:34;;;;;;;25.08;14.32;;;;;;;2.08;47.46;102870.88;5110420;28;20027;-75
2022/03/20 02:30:06;;;;;;;22.88;14.35;;;;;;;2.09;47.41;102871.72;5112068;28;20054;-75
2022/03/20 02:32:32;;;;;;;24.35;13.40;;;;;;;2.06;47.52;102871.75;5111525;28;20537;-75
2022/03/20 02:35:04;;;;;;;23.02;14.45;;;;;;;2.00;47.82;102870.06;5111940;28;20036;-75
2022/03/20 02:37:31;;;;;;;29.15;14.13;;;;;;;2.09;47.70;102891.16;5111171;28;20035;-74
2022/03/20 02:40:01;;;;;;;24.77;13.73;;;;;;;2.07;47.59;102879.69;5110586;28;20164;-75
2022/03/20 02:42:27;;;;;;;23.77;13.55;;;;;;;2.06;47.59;102877.94;5111548;27;20024;-75
2022/03/20 02:45:03;;;;;;;21.63;14.15;;;;;;;2.02;47.81;102878.88;5111462;28;20073;-76
2022/03/20 02:47:39;;;;;;;21.08;11.88;;;;;;;2.02;47.96;102886.81;5109694;28;20030;-75
2022/03/20 02:50:13;;;;;;;23.08;13.07;;;;;;;1.98;48.01;102884.22;5111282;28;20027;-75
2022/03/20 02:53:14;;;;;;;24.73;13.80;;;;;;;1.95;48.05;102882.50;5109820;28;20016;-75
2022/03/20 02:55:45;;;;;;;22.67;13.48;;;;;;;1.85;47.95;102870.28;5040968;28;20123;-75
2022/03/20 02:58:15;;;;;;;24.33;13.63;;;;;;;1.90;48.44;102884.31;5096747;28;20047;-75
2022/03/20 03:00:42;;;;;;;26.40;13.40;;;;;;;1.87;48.73;102880.84;5111130;28;20032;-75
2022/03/20 03:03:11;;;;;;;23.80;13.25;;;;;;;1.76;48.77;102874.78;5109763;28;20080;-75
2022/03/20 03:05:38;;;;;;;19.92;12.40;;;;;;;1.81;49.12;102897.63;5110958;28;20372;-75
2022/03/20 03:10:57;;;;;;;24.13;12.55;;;;;;;1.71;49.43;102897.78;5108857;28;20026;-75
2022/03/20 03:13:25;;;;;;;24.08;13.40;;;;;;;1.70;49.36;102904.81;5108125;28;20023;-75
2022/03/20 03:15:52;;;;;;;25.02;13.77;;;;;;;1.68;49.49;102903.09;5110968;28;20024;-75
2022/03/20 03:18:20;;;;;;;20.73;13.50;;;;;;;1.59;49.57;102889.97;5109909;28;20043;-75
2022/03/20 03:20:47;;;;;;;24.20;13.43;;;;;;;1.63;49.25;102902.25;5111017;28;20437;-75
2022/03/20 03:23:13;;;;;;;19.20;12.10;;;;;;;1.64;49.06;102914.56;5111032;28;20028;-75
2022/03/20 03:25:39;;;;;;;29.42;13.70;;;;;;;1.63;49.21;102907.53;5110463;28;20056;-75
2022/03/20 03:28:05;;;;;;;23.73;13.50;;;;;;;1.59;48.85;102912.00;5111120;28;20020;-75
2022/03/20 03:30:30;;;;;;;24.63;14.65;;;;;;;1.64;48.85;102927.81;5108846;28;20042;-76
2022/03/20 03:32:56;;;;;;;30.55;17.30;;;;;;;1.55;49.07;102915.53;5109421;28;20028;-74
2022/03/20 03:38:06;;;;;;;;;;;;;;;1.65;48.97;102943.66;5110428;28;20030;-75
2022/03/20 03:40:31;;;;;;;25.17;14.02;;;;;;;1.59;49.20;102929.63;5109343;28;20370;-75
2022/03/20 03:43:00;;;;;;;22.10;12.75;;;;;;;1.62;48.94;102934.91;5110556;28;20391;-75
2022/03/20 03:45:26;;;;;;;22.08;13.05;;;;;;;1.61;49.07;102939.28;5107670;28;20043;-76
2022/03/20 03:47:52;;;;;;;27.80;13.77;;;;;;;1.59;49.31;102933.16;5110140;27;20352;-75
2022/03/20 03:50:19;;;;;;;24.55;12.43;;;;;;;1.65;49.23;102945.44;5110195;28;20015;-75
2022/03/20 03:52:44;;;;;;;25.77;13.38;;;;;;;1.65;49.27;102951.59;5110307;28;20030;-75
2022/03/20 03:55:10;;;;;;;23.55;12.63;;;;;;;1.50;49.26;102927.94;5108978;28;20028;-75
2022/03/20 03:57:36;;;;;;;24.75;13.48;;;;;;;1.50;49.68;102935.00;5110022;28;20038;-75
2022/03/20 04:00:03;;;;;;;28.65;13.88;;;;;;;1.53;49.57;102950.84;5108871;28;20539;-75
2022/03/20 04:02:29;;;;;;;24.08;13.07;;;;;;;1.52;49.47;102959.66;5110044;28;20075;-75
2022/03/20 04:04:54;;;;;;;25.27;13.88;;;;;;;1.43;49.38;102952.69;5111118;28;20055;-75
2022/03/20 04:07:21;;;;;;;20.30;12.43;;;;;;;1.39;50.12;102964.16;5109919;28;20023;-75
2022/03/20 04:09:50;;;;;;;25.15;13.90;;;;;;;1.44;49.65;102974.72;5109987;28;20031;-75
2022/03/20 04:12:15;;;;;;;24.90;13.13;;;;;;;1.41;49.76;102965.03;5110003;28;20080;-76
2022/03/20 04:14:41;;;;;;;20.15;12.88;;;;;;;1.37;50.24;102973.91;5110018;28;20019;-75
2022/03/20 04:17:07;;;;;;;27.02;13.13;;;;;;;1.32;50.13;102974.84;5110641;28;20046;-75
2022/03/20 04:19:33;;;;;;;21.83;13.05;;;;;;;1.23;50.23;102959.88;5112797;28;20019;-75
2022/03/20 04:21:59;;;;;;;26.63;13.75;;;;;;;1.28;50.20;102968.69;5112942;28;20513;-75
2022/03/20 04:24:25;;;;;;;26.25;12.88;;;;;;;1.22;50.18;102966.06;5114127;28;20112;-76
2022/03/20 04:26:50;;;;;;;22.92;12.40;;;;;;;1.23;50.70;102974.88;5114049;28;20094;-75
2022/03/20 04:29:16;;;;;;;23.40;12.68;;;;;;;1.21;50.50;102977.53;5113679;28;20080;-75
2022/03/20 04:31:41;;;;;;;20.77;12.05;;;;;;;1.11;50.49;102974.97;5113703;28;20084;-75
2022/03/20 04:34:07;;;;;;;19.30;11.98;;;;;;;1.12;50.63;102976.72;5113281;28;20028;-76
2022/03/20 04:36:34;;;;;;;19.45;11.75;;;;;;;1.06;50.82;102972.34;5113576;28;20027;-75
2022/03/20 04:39:00;;;;;;;19.40;11.82;;;;;;;1.04;50.96;102979.44;5113579;28;20065;-75
2022/03/20 04:41:26;;;;;;;18.30;11.30;;;;;;;1.07;50.77;102984.69;5112200;28;20151;-75
2022/03/20 04:43:53;;;;;;;20.80;11.30;;;;;;;1.06;50.78;102988.22;5112007;28;20492;-75
2022/03/20 04:46:19;;;;;;;19.30;11.48;;;;;;;0.96;51.12;102970.66;5113243;28;20027;-75
2022/03/20 04:59:43;;;;;;;21.40;12.18;;;;;;;1.00;50.80;102998.81;5110782;28;20023;-76
2022/03/20 05:02:08;;;;;;;22.25;12.18;;;;;;;1.09;50.77;103019.91;5113231;28;20019;-75
2022/03/20 05:04:34;;;;;;;19.77;11.65;;;;;;;0.99;50.81;102997.06;5114942;27;20023;-75
2022/03/20 05:06:59;;;;;;;20.80;11.95;;;;;;;1.10;50.86;103026.94;5113209;28;20035;-75
2022/03/20 05:14:57;;;;;;;22.33;11.32;;;;;;;1.05;50.80;103017.28;5112587;28;20112;-75
2022/03/20 05:17:23;;;;;;;20.10;10.52;;;;;;;1.08;50.65;103022.56;5111696;28;20032;-75
2022/03/20 05:19:48;;;;;;;20.98;12.63;;;;;;;1.12;50.73;103021.63;5112477;28;20035;-75
2022/03/20 05:22:14;;;;;;;20.80;10.63;;;;;;;1.17;50.61;103020.75;5112311;28;20027;-75
2022/03/20 05:24:40;;;;;;;18.17;11.50;;;;;;;1.27;50.58;103040.94;5112113;28;20023;-74
2022/03/20 05:27:07;;;;;;;20.27;11.65;;;;;;;1.23;50.38;103022.47;5112315;28;20051;-75
2022/03/20 05:29:33;;;;;;;17.40;10.52;;;;;;;1.28;50.45;103034.75;5110956;27;20103;-75
2022/03/20 05:32:00;;;;;;;18.38;10.75;;;;;;;1.38;50.04;103032.91;5112924;28;20051;-75
2022/03/20 05:34:26;;;;;;;17.33;10.45;;;;;;;1.33;50.18;103017.13;5111761;28;20115;-75
2022/03/20 05:36:52;;;;;;;21.60;11.73;;;;;;;1.43;49.98;103026.75;5112608;28;20521;-75
2022/03/20 05:39:18;;;;;;;16.30;10.48;;;;;;;1.41;49.85;103007.34;5112892;28;20116;-75
2022/03/20 05:41:46;;;;;;;17.13;10.23;;;;;;;1.49;49.58;103026.66;5112650;28;20071;-75
2022/03/20 05:44:12;;;;;;;18.13;10.85;;;;;;;1.62;49.31;103038.06;5111027;28;20031;-75
2022/03/20 05:46:38;;;;;;;22.98;11.25;;;;;;;1.53;49.11;103023.13;5112444;28;20032;-75
2022/03/20 05:49:05;;;;;;;19.42;11.15;;;;;;;1.71;49.07;103048.56;5112395;28;20359;-75
2022/03/20 05:51:31;;;;;;;22.00;11.18;;;;;;;1.72;49.04;103040.63;5111020;28;20490;-75
2022/03/20 05:53:57;;;;;;;20.75;11.77;;;;;;;1.77;48.69;103035.25;5112393;28;20035;-75
2022/03/20 05:59:07;;;;;;;18.88;10.68;;;;;;;1.90;48.33;103058.06;5111293;28;20042;-75
2022/03/20 06:01:32;;;;;;;17.77;10.52;;;;;;;1.96;48.48;103060.66;5110977;28;20511;-75
2022/03/20 06:03:58;;;;;;;21.70;11.52;;;;;;;2.01;47.96;103066.81;5112017;28;20418;-75
2022/03/20 06:06:23;;;;;;;16.50;10.98;;;;;;;1.93;47.96;103039.53;5112136;27;20020;-75
2022/03/20 06:08:49;;;;;;;19.25;10.73;;;;;;;2.05;47.83;103052.66;5096226;28;20871;-76
2022/03/20 06:11:15;;;;;;;17.83;10.98;;;;;;;2.11;47.82;103064.06;5108409;28;20028;-76
2022/03/20 06:13:41;;;;;;;20.48;10.85;;;;;;;2.17;47.56;103053.41;5105824;28;20047;-75
2022/03/20 06:16:08;;;;;;;17.42;10.95;;;;;;;2.28;47.36;103058.59;5105325;28;20046;-75
2022/03/20 06:18:34;;;;;;;22.83;11.55;;;;;;;2.31;47.05;103042.69;5106393;28;20088;-75
2022/03/20 06:21:00;;;;;;;19.27;10.23;;;;;;;2.52;46.99;103066.31;5107175;28;20113;-75
2022/03/20 06:23:27;;;;;;;22.88;10.98;;;;;;;2.57;46.71;103050.38;5108209;28;20053;-75
2022/03/20 06:25:52;;;;;;;17.38;10.63;;;;;;;2.77;46.29;103066.91;5108910;28;20051;-75
2022/03/20 06:28:19;;;;;;;17.27;10.57;;;;;;;2.86;45.86;103069.41;5106927;28;20562;-75
2022/03/20 06:30:45;;;;;;;16.10;9.82;;;;;;;3.00;45.09;103076.28;5107839;28;20047;-75
2022/03/20 06:33:11;;;;;;;19.67;10.40;;;;;;;3.05;45.57;103070.94;5108505;28;20077;-75
2022/03/20 06:35:37;;;;;;;20.20;10.00;;;;;;;3.19;45.27;103079.59;5108079;28;20028;-75
2022/03/20 06:38:03;;;;;;;19.15;11.15;;;;;;;3.27;44.84;103078.59;5106176;28;20186;-75
2022/03/20 06:40:28;;;;;;;17.45;11.07;;;;;;;3.32;44.71;103075.88;5106383;28;20031;-75
2022/03/20 06:42:54;;;;;;;19.70;10.55;;;;;;;3.49;44.21;103087.13;5108551;27;20028;-75
2022/03/20 06:45:20;;;;;;;19.13;10.63;;;;;;;3.55;44.04;103087.03;5109333;27;20107;-75
2022/03/20 06:47:46;;;;;;;17.83;10.23;;;;;;;3.75;43.91;103098.22;5109038;28;20023;-75
2022/03/20 06:50:13;;;;;;;17.15;9.55;;;;;;;3.83;43.34;103091.00;5109926;28;20566;-75
2022/03/20 06:52:41;;;;;;;16.02;10.07;;;;;;;3.98;42.91;103101.38;5109542;28;20019;-75
2022/03/20 06:55:10;;;;;;;14.25;9.32;;;;;;;4.07;42.67;103102.09;5109954;28;20276;-74
2022/03/20 06:57:35;;;;;;;16.27;10.23;;;;;;;4.23;42.59;103106.25;5109180;28;20058;-75
2022/03/20 07:00:04;;;;;;;15.65;9.50;;;;;;;4.30;42.29;103102.59;5108256;28;20756;-75
2022/03/20 07:02:30;;;;;;;15.30;8.75;;;;;;;4.34;42.05;103091.00;5109811;28;20028;-75
2022/03/20 07:05:08;;;;;;;12.30;7.90;;;;;;;4.50;41.92;103091.59;5109150;28;20054;-75
2022/03/20 07:07:37;;;;;;;11.30;8.10;;;;;;;4.69;41.81;103106.28;5109865;28;20076;-74
2022/03/20 07:10:03;;;;;;;13.07;7.97;;;;;;;4.86;41.49;103101.50;5109821;28;20042;-74
2022/03/20 07:12:29;;;;;;;12.77;7.80;;;;;;;5.05;40.94;103096.69;5109267;28;20114;-75
2022/03/20 07:14:57;;;;;;;12.77;7.63;;;;;;;5.24;40.26;103096.28;5108174;28;20122;-74
2022/03/20 07:17:24;;;;;;;10.30;7.65;;;;;;;5.47;39.77;103101.97;5107627;28;20073;-74
2022/03/20 07:19:50;;;;;;;12.25;7.32;;;;;;;5.80;38.28;103105.66;5109261;28;20020;-73
2022/03/20 07:22:16;;;;;;;13.05;8.40;;;;;;;5.98;38.42;103098.13;5107317;28;20024;-74
2022/03/20 07:24:43;;;;;;;13.25;8.98;;;;;;;6.24;38.13;103103.66;5109088;28;20028;-74
2022/03/20 07:29:55;;;;;;;14.25;8.95;;;;;;;6.81;36.42;103106.56;5107004;28;20078;-74
2022/03/20 07:32:21;;;;;;;12.82;8.20;;;;;;;6.99;36.50;103108.69;5107710;28;20066;-74
2022/03/20 07:34:47;;;;;;;18.00;8.70;;;;;;;7.18;36.77;103106.34;5109826;28;20023;-74
2022/03/20 07:37:17;;;;;;;11.48;7.95;;;;;;;7.39;35.87;103105.72;5109065;28;20039;-75
2022/03/20 07:39:50;;;;;;;14.13;7.85;;;;;;;7.62;35.18;103103.22;5103818;28;21025;-74
2022/03/20 07:42:20;;;;;;;11.00;7.10;;;;;;;7.89;34.32;103115.69;5105062;28;20063;-74
2022/03/20 07:44:46;;;;;;;13.77;6.68;;;;;;;8.08;34.31;103115.06;5109283;28;20302;-74
2022/03/20 07:47:22;;;;;;;11.80;7.05;;;;;;;8.28;34.06;103104.59;5108860;28;20097;-74
2022/03/20 07:49:50;;;;;;;9.73;6.90;;;;;;;8.59;32.65;103107.09;5105971;28;20099;-75
2022/03/20 07:52:16;;;;;;;10.45;7.35;;;;;;;8.72;33.16;103106.59;5103647;28;20120;-74
2022/03/20 07:54:42;;;;;;;12.65;6.63;;;;;;;9.00;32.78;103109.16;5106637;28;20042;-74
2022/03/20 07:57:09;;;;;;;9.48;6.90;;;;;;;9.38;32.90;103105.88;5106708;28;20848;-74
2022/03/20 07:59:36;;;;;;;9.57;7.15;;;;;;;9.94;31.73;103112.56;5106758;28;20046;-74
2022/03/20 08:02:02;;;;;;;9.70;7.30;;;;;;;10.49;30.21;103100.41;5107105;28;20386;-74
2022/03/20 08:04:27;;;;;;;12.18;7.53;;;;;;;10.82;29.95;103097.13;5108495;28;20055;-74
2022/03/20 08:06:53;;;;;;;7.70;6.43;;;;;;;11.29;29.54;103094.94;5105855;28;20058;-74
2022/03/20 08:09:18;;;;;;;9.30;6.95;;;;;;;12.13;28.07;103106.97;5107002;28;20410;-75
2022/03/20 08:11:44;;;;;;;11.05;7.50;;;;;;;12.07;27.65;103099.19;5108064;28;20024;-75
2022/03/20 08:14:09;;;;;;;12.57;7.68;;;;;;;12.33;27.25;103109.50;5106931;28;20031;-75
2022/03/20 08:16:39;;;;;;;9.73;6.97;;;;;;;13.47;26.64;103105.16;5108073;28;20035;-75
2022/03/20 08:19:05;;;;;;;9.73;7.28;;;;;;;14.71;25.32;103109.53;5108194;28;20035;-75
2022/03/20 08:21:33;;;;;;;12.23;7.53;;;;;;;15.96;23.65;103109.59;5105656;28;20015;-75
2022/03/20 08:24:02;;;;;;;9.65;6.90;;;;;;;16.85;22.72;103105.22;5108217;28;20118;-75
2022/03/20 08:26:31;;;;;;;9.75;7.38;;;;;;;17.60;21.94;103096.16;5105195;28;20108;-75
2022/03/20 08:28:58;;;;;;;8.63;7.60;;;;;;;18.45;21.09;103104.22;5108189;28;20585;-75
2022/03/20 08:31:24;;;;;;;10.27;7.22;;;;;;;19.01;20.48;103096.09;5107689;28;20026;-75
2022/03/20 08:33:50;;;;;;;9.45;7.55;;;;;;;19.42;19.94;103099.13;5106087;28;20502;-75
2022/03/20 08:36:15;;;;;;;8.80;7.10;;;;;;;19.51;19.39;103086.59;5108378;28;20045;-75
2022/03/20 08:38:41;;;;;;;8.88;7.35;;;;;;;20.11;19.04;103076.97;5109779;28;21207;-75
2022/03/20 08:41:07;;;;;;;10.18;7.18;;;;;;;19.89;19.20;103078.84;5108870;28;20020;-75
2022/03/20 08:43:32;;;;;;;13.82;7.00;;;;;;;19.96;19.23;103080.09;5108731;28;20715;-75
2022/03/20 08:45:58;;;;;;;10.38;7.10;;;;;;;20.06;18.82;103076.44;5110114;28;20418;-75
2022/03/20 08:48:23;;;;;;;9.73;7.15;;;;;;;20.00;18.86;103076.09;5107928;28;20019;-75
2022/03/20 08:50:49;;;;;;;10.85;7.88;;;;;;;19.79;19.09;103073.31;5108991;28;20059;-75
2022/03/20 08:53:18;;;;;;;8.95;7.05;;;;;;;19.98;19.18;103070.78;5108043;28;20167;-75
2022/03/20 08:55:48;;;;;;;9.70;7.30;;;;;;;19.95;18.88;103071.03;5109696;28;20114;-75
2022/03/20 08:58:14;;;;;;;11.25;7.50;;;;;;;19.87;19.08;103059.06;5108490;28;20051;-75
2022/03/20 09:00:40;;;;;;;9.40;7.05;;;;;;;20.23;18.69;103069.59;5109496;28;20031;-76
2022/03/20 09:03:06;;;;;;;10.77;7.20;;;;;;;20.53;18.49;103047.88;5109913;28;20110;-75
2022/03/20 09:05:32;;;;;;;11.55;8.07;;;;;;;20.90;18.20;103048.25;5113482;28;20042;-75
2022/03/20 09:07:58;;;;;;;9.38;7.10;;;;;;;20.76;18.30;103045.88;5112297;28;20475;-75
2022/03/20 09:10:25;;;;;;;10.25;6.70;;;;;;;21.05;17.98;103053.25;5113325;28;20030;-75
2022/03/20 09:12:50;;;;;;;12.90;7.63;;;;;;;21.31;17.87;103048.22;5111894;28;20031;-75
2022/03/20 09:15:17;;;;;;;9.10;7.38;;;;;;;21.10;18.09;103067.38;5113075;28;20596;-75
2022/03/20 09:20:30;;;;;;;9.57;7.50;;;;;;;20.98;18.24;103064.84;5112229;28;20030;-75
2022/03/20 09:22:56;;;;;;;12.30;7.68;;;;;;;21.15;17.81;103047.84;5111744;28;20043;-75
2022/03/20 09:25:22;;;;;;;9.30;7.43;;;;;;;20.92;18.42;103060.75;5111683;28;20168;-75
2022/03/20 09:27:51;;;;;;;7.38;6.68;;;;;;;20.60;18.30;103065.44;5112686;28;20039;-75
2022/03/20 09:30:18;;;;;;;8.48;6.70;;;;;;;20.20;18.22;103058.97;5111640;28;20506;-75
2022/03/20 09:32:44;;;;;;;10.15;7.60;;;;;;;20.27;18.11;103049.25;5113803;28;20027;-75
2022/03/20 09:35:10;;;;;;;10.07;7.22;;;;;;;19.66;18.76;103052.66;5113607;28;20059;-75
2022/03/20 09:37:36;;;;;;;9.10;7.13;;;;;;;19.91;18.97;103046.91;5113257;28;20031;-75
2022/03/20 09:40:03;;;;;;;10.48;7.68;;;;;;;20.30;18.76;103043.53;5113816;28;20023;-75
2022/03/20 09:42:29;;;;;;;10.20;7.95;;;;;;;20.84;18.27;103021.50;5112300;28;20077;-75
2022/03/20 09:44:55;;;;;;;10.70;7.55;;;;;;;21.33;17.81;103019.75;5113273;28;20035;-75
2022/03/20 09:47:23;;;;;;;9.82;7.75;;;;;;;21.62;17.41;103036.22;5113718;28;20098;-75
2022/03/20 09:49:50;;;;;;;10.35;7.00;;;;;;;21.87;17.17;103036.59;5111483;28;20130;-76
2022/03/20 09:52:19;;;;;;;9.57;6.60;;;;;;;21.91;16.77;103031.69;5111677;28;20708;-76
2022/03/20 09:54:45;;;;;;;12.27;7.07;;;;;;;22.31;16.68;103019.59;5112264;28;20383;-76
2022/03/20 09:57:11;;;;;;;8.88;6.78;;;;;;;22.76;16.31;103033.53;5112510;28;20467;-76
2022/03/20 09:59:39;;;;;;;10.05;7.20;;;;;;;23.09;16.01;103023.94;5112157;28;20023;-75
2022/03/20 10:02:06;;;;;;;10.18;6.85;;;;;;;23.34;15.96;103036.97;5109941;28;20034;-76
2022/03/20 10:04:34;;;;;;;10.75;6.90;;;;;;;23.31;15.78;103027.16;5112501;28;20539;-76
2022/03/20 10:07:01;;;;;;;7.07;6.30;;;;;;;22.74;16.04;103005.47;5111004;28;20022;-75
2022/03/20 10:09:27;;;;;;;7.65;6.28;;;;;;;22.21;16.81;103017.88;5112418;28;20430;-75
2022/03/20 10:12:00;;;;;;;7.90;6.97;;;;;;;21.50;17.32;102999.97;5110809;28;20776;-75
2022/03/20 10:14:30;;;;;;;8.93;6.60;;;;;;;20.62;17.83;103024.38;5108522;28;20057;-75
2022/03/20 10:17:16;;;;;;;7.68;6.18;;;;;;;19.47;18.54;103019.75;5112188;28;20121;-76
2022/03/20 10:19:42;;;;;;;8.57;6.40;;;;;;;18.67;19.18;103026.28;5108510;28;20027;-75
2022/03/20 10:22:10;;;;;;;7.82;6.82;;;;;;;17.91;19.98;103022.31;5110750;28;20041;-75
2022/03/20 10:24:38;;;;;;;9.95;6.47;;;;;;;17.18;20.93;103018.72;5111906;28;20084;-75
2022/03/20 10:27:04;;;;;;;8.52;6.28;;;;;;;16.82;20.36;103021.38;5110846;28;20413;-75
2022/03/20 10:29:31;;;;;;;8.63;7.10;;;;;;;16.08;21.25;103022.13;5112060;28;20038;-75
2022/03/20 10:32:00;;;;;;;9.27;6.40;;;;;;;15.37;21.98;103027.78;5110624;28;20555;-75
2022/03/20 10:34:26;;;;;;;8.70;6.57;;;;;;;14.84;22.35;103008.72;5108375;28;20065;-75
2022/03/20 10:36:52;;;;;;;11.52;7.05;;;;;;;14.47;22.64;103017.34;5111745;28;20031;-75
2022/03/20 10:39:25;;;;;;;15.13;7.22;;;;;;;14.25;22.93;103021.47;5112025;28;20062;-76
2022/03/20 10:41:56;;;;;;;10.00;7.63;;;;;;;13.82;23.76;102995.22;5112175;28;20089;-75
2022/03/20 10:44:27;;;;;;;11.60;6.80;;;;;;;13.75;23.43;103019.03;5112625;28;20073;-75
2022/03/20 10:47:13;;;;;;;10.43;6.72;;;;;;;13.37;23.35;103020.34;5110784;28;20382;-76
2022/03/20 10:49:47;;;;;;;8.55;6.63;;;;;;;13.12;23.56;103014.56;5112114;28;20042;-75
2022/03/20 10:52:19;;;;;;;10.02;7.13;;;;;;;12.79;23.57;103013.72;5112258;28;20016;-75
2022/03/20 10:54:49;;;;;;;8.77;6.15;;;;;;;12.59;23.45;103013.91;5112071;28;20417;-76
2022/03/20 10:57:15;;;;;;;11.10;6.10;;;;;;;12.42;24.08;102995.09;5112498;28;20016;-76
2022/03/20 10:59:42;;;;;;;10.82;7.28;;;;;;;12.25;24.68;103001.38;5112109;27;20390;-76
2022/03/20 11:02:21;;;;;;;10.60;7.13;;;;;;;12.09;25.07;102996.88;5112239;28;20037;-76
2022/03/20 11:04:46;;;;;;;10.10;6.95;;;;;;;12.10;25.20;103001.31;5111125;28;20023;-76
2022/03/20 11:07:16;;;;;;;11.43;7.43;;;;;;;11.87;25.30;102963.94;5112755;28;20080;-76
2022/03/20 11:09:48;;;;;;;9.25;7.03;;;;;;;11.98;24.33;102970.53;5112401;28;20028;-76
2022/03/20 11:12:18;;;;;;;8.02;6.28;;;;;;;11.99;24.59;102984.84;5112772;28;20549;-76
2022/03/20 11:14:45;;;;;;;8.95;6.45;;;;;;;11.93;24.47;102985.16;5113422;28;20080;-76
2022/03/20 11:17:17;;;;;;;10.80;7.65;;;;;;;11.90;25.03;102983.47;5112775;28;20059;-74
2022/03/20 11:19:49;;;;;;;12.07;7.10;;;;;;;11.97;25.56;102981.34;5109474;28;20024;-74
2022/03/20 11:22:20;;;;;;;10.23;6.32;;;;;;;11.78;24.91;102954.53;5109734;28;20034;-74
2022/03/20 11:24:48;;;;;;;11.35;7.13;;;;;;;11.85;25.15;102973.91;5107960;28;20510;-74
2022/03/20 11:27:24;;;;;;;8.98;6.85;;;;;;;11.82;26.02;102969.56;5102146;28;20538;-74
2022/03/20 11:30:10;;;;;;;12.27;6.93;;;;;;;11.82;26.04;102968.69;5100628;27;20031;-74
2022/03/20 11:32:36;;;;;;;8.75;6.57;;;;;;;11.75;25.59;102959.19;5105957;28;20577;-75
2022/03/20 11:35:03;;;;;;;8.90;6.00;;;;;;;11.80;24.96;102951.78;5107772;28;20024;-75
2022/03/20 11:37:48;;;;;;;12.30;6.53;;;;;;;11.71;24.84;102971.06;5104330;28;20057;-75
2022/03/20 11:40:22;;;;;;;10.90;6.47;;;;;;;11.57;25.19;102946.66;5104879;28;22026;-74
2022/03/20 11:43:11;;;;;;;9.85;6.22;;;;;;;11.40;25.09;102951.06;5088345;28;20061;-74
2022/03/20 11:45:36;;;;;;;9.40;6.38;;;;;;;11.39;24.81;102957.34;5102223;28;20031;-74
2022/03/20 11:48:20;;;;;;;8.63;6.15;;;;;;;11.35;25.47;102963.84;5103968;28;20441;-76
2022/03/20 11:50:50;;;;;;;8.47;5.80;;;;;;;11.24;25.23;102947.38;5107163;28;20020;-77